sensor_id;sensor_type;location;lat;lon;timestamp;pressure;altitude;pressure_sealevel;temperature;humidity
66398;BME280;54877;51.504;3.894;2023-02-28T00:00:32;103202.34;;;6.62;58.51
66398;BME280;54877;51.504;3.894;2023-02-28T00:02:58;103197.97;;;6.62;58.38
66398;BME280;54877;51.504;3.894;2023-02-28T00:05:24;103202.34;;;6.62;58.40
66398;BME280;54877;51.504;3.894;2023-02-28T00:07:51;103196.22;;;6.64;58.21
66398;BME280;54877;51.504;3.894;2023-02-28T00:10:20;103186.53;;;6.63;58.41
66398;BME280;54877;51.504;3.894;2023-02-28T00:12:49;103210.22;;;6.59;58.39
66398;BME280;54877;51.504;3.894;2023-02-28T00:15:16;103206.72;;;6.58;58.36
66398;BME280;54877;51.504;3.894;2023-02-28T00:17:42;103202.31;;;6.56;58.63
66398;BME280;54877;51.504;3.894;2023-02-28T00:20:07;103197.88;;;6.44;58.91
66398;BME280;54877;51.504;3.894;2023-02-28T00:22:35;103197.91;;;6.50;59.24
66398;BME280;54877;51.504;3.894;2023-02-28T00:25:01;103185.59;;;6.49;59.30
66398;BME280;54877;51.504;3.894;2023-02-28T00:27:27;103193.50;;;6.49;59.40
66398;BME280;54877;51.504;3.894;2023-02-28T00:29:52;103191.75;;;6.45;59.57
66398;BME280;54877;51.504;3.894;2023-02-28T00:32:19;103190.84;;;6.40;59.45
66398;BME280;54877;51.504;3.894;2023-02-28T00:34:44;103195.19;;;6.38;59.20
66398;BME280;54877;51.504;3.894;2023-02-28T00:37:09;103193.44;;;6.38;59.15
66398;BME280;54877;51.504;3.894;2023-02-28T00:39:38;103203.09;;;6.38;59.05
66398;BME280;54877;51.504;3.894;2023-02-28T00:42:05;103201.34;;;6.37;59.20
66398;BME280;54877;51.504;3.894;2023-02-28T00:44:31;103187.31;;;6.32;59.26
66398;BME280;54877;51.504;3.894;2023-02-28T00:46:57;103195.16;;;6.26;59.54
66398;BME280;54877;51.504;3.894;2023-02-28T00:49:23;103198.69;;;6.34;59.26
66398;BME280;54877;51.504;3.894;2023-02-28T00:51:49;103192.59;;;6.35;59.14
66398;BME280;54877;51.504;3.894;2023-02-28T00:54:15;103193.47;;;6.37;58.98
66398;BME280;54877;51.504;3.894;2023-02-28T00:56:41;103187.31;;;6.36;58.83
66398;BME280;54877;51.504;3.894;2023-02-28T00:59:07;103195.22;;;6.36;58.66
66398;BME280;54877;51.504;3.894;2023-02-28T01:01:32;103194.31;;;6.36;58.36
66398;BME280;54877;51.504;3.894;2023-02-28T01:03:58;103198.69;;;6.29;58.51
66398;BME280;54877;51.504;3.894;2023-02-28T01:06:23;103205.66;;;6.23;58.64
66398;BME280;54877;51.504;3.894;2023-02-28T01:08:49;103205.66;;;6.21;58.24
66398;BME280;54877;51.504;3.894;2023-02-28T01:11:15;103203.88;;;6.19;58.48
66398;BME280;54877;51.504;3.894;2023-02-28T01:13:42;103196.84;;;6.15;58.36
66398;BME280;54877;51.504;3.894;2023-02-28T01:16:08;103208.22;;;6.14;58.12
66398;BME280;54877;51.504;3.894;2023-02-28T01:18:34;103198.59;;;6.14;58.31
66398;BME280;54877;51.504;3.894;2023-02-28T01:21:04;103200.31;;;6.11;58.50
66398;BME280;54877;51.504;3.894;2023-02-28T01:23:35;103192.44;;;6.09;58.27
66398;BME280;54877;51.504;3.894;2023-02-28T01:26:07;103188.94;;;6.12;58.38
66398;BME280;54877;51.504;3.894;2023-02-28T01:28:44;103187.13;;;6.02;58.48
66398;BME280;54877;51.504;3.894;2023-02-28T01:31:10;103199.34;;;6.00;58.56
66398;BME280;54877;51.504;3.894;2023-02-28T01:33:35;103197.66;;;6.02;58.24
66398;BME280;54877;51.504;3.894;2023-02-28T01:36:01;103198.53;;;6.05;58.30
66398;BME280;54877;51.504;3.894;2023-02-28T01:38:29;103196.81;;;6.07;58.19
66398;BME280;54877;51.504;3.894;2023-02-28T01:40:55;103199.44;;;6.07;58.08
66398;BME280;54877;51.504;3.894;2023-02-28T01:43:22;103191.53;;;6.06;58.21
66398;BME280;54877;51.504;3.894;2023-02-28T01:45:52;103185.41;;;6.11;58.12
66398;BME280;54877;51.504;3.894;2023-02-28T01:48:25;103192.41;;;6.08;58.19
66398;BME280;54877;51.504;3.894;2023-02-28T01:50:56;103190.69;;;6.13;58.11
66398;BME280;54877;51.504;3.894;2023-02-28T01:53:30;103190.69;;;6.14;58.26
66398;BME280;54877;51.504;3.894;2023-02-28T01:55:59;103185.47;;;6.22;57.96
66398;BME280;54877;51.504;3.894;2023-02-28T01:58:26;103174.94;;;6.22;58.45
66398;BME280;54877;51.504;3.894;2023-02-28T02:00:51;103180.19;;;6.19;58.94
66398;BME280;54877;51.504;3.894;2023-02-28T02:03:18;103183.78;;;6.27;58.83
66398;BME280;54877;51.504;3.894;2023-02-28T02:05:45;103183.75;;;6.30;59.07
66398;BME280;54877;51.504;3.894;2023-02-28T02:08:13;103169.75;;;6.32;59.00
66398;BME280;54877;51.504;3.894;2023-02-28T02:10:45;103173.28;;;6.34;59.24
66398;BME280;54877;51.504;3.894;2023-02-28T02:16:13;103175.94;;;6.42;59.94
66398;BME280;54877;51.504;3.894;2023-02-28T02:19:16;103174.16;;;6.35;60.68
66398;BME280;54877;51.504;3.894;2023-02-28T02:36:22;103169.75;;;6.34;60.65
66398;BME280;54877;51.504;3.894;2023-02-28T02:39:02;103174.19;;;6.39;60.36
66398;BME280;54877;51.504;3.894;2023-02-28T02:41:34;103176.81;;;6.44;60.47
66398;BME280;54877;51.504;3.894;2023-02-28T02:46:32;103176.78;;;6.38;60.28
66398;BME280;54877;51.504;3.894;2023-02-28T02:49:00;103173.31;;;6.43;60.51
66398;BME280;54877;51.504;3.894;2023-02-28T02:51:31;103175.09;;;6.46;60.26
66398;BME280;54877;51.504;3.894;2023-02-28T02:54:03;103167.19;;;6.46;60.26
66398;BME280;54877;51.504;3.894;2023-02-28T02:56:34;103163.69;;;6.50;60.26
66398;BME280;54877;51.504;3.894;2023-02-28T02:59:02;103165.44;;;6.53;60.05
66398;BME280;54877;51.504;3.894;2023-02-28T03:01:32;103162.88;;;6.57;60.06
66398;BME280;54877;51.504;3.894;2023-02-28T03:04:02;103148.78;;;6.52;60.07
66398;BME280;54877;51.504;3.894;2023-02-28T03:06:31;103154.06;;;6.55;60.20
66398;BME280;54877;51.504;3.894;2023-02-28T03:08:56;103157.59;;;6.57;60.22
66398;BME280;54877;51.504;3.894;2023-02-28T03:11:22;103154.03;;;6.52;60.46
66398;BME280;54877;51.504;3.894;2023-02-28T03:13:52;103154.03;;;6.52;60.48
66398;BME280;54877;51.504;3.894;2023-02-28T03:16:32;103162.72;;;6.33;61.42
66398;BME280;54877;51.504;3.894;2023-02-28T03:19:20;103154.91;;;6.45;61.15
66398;BME280;54877;51.504;3.894;2023-02-28T03:25:17;103159.28;;;6.49;60.69
66398;BME280;54877;51.504;3.894;2023-02-28T03:30:54;103167.22;;;6.50;60.73
66398;BME280;54877;51.504;3.894;2023-02-28T03:33:28;103173.31;;;6.37;61.30
66398;BME280;54877;51.504;3.894;2023-02-28T03:35:59;103168.09;;;6.53;60.93
66398;BME280;54877;51.504;3.894;2023-02-28T03:38:38;103171.63;;;6.59;60.77
66398;BME280;54877;51.504;3.894;2023-02-28T03:41:11;103172.50;;;6.61;60.47
66398;BME280;54877;51.504;3.894;2023-02-28T03:43:41;103179.53;;;6.64;59.96
66398;BME280;54877;51.504;3.894;2023-02-28T03:46:12;103171.66;;;6.65;60.30
66398;BME280;54877;51.504;3.894;2023-02-28T03:48:44;103179.56;;;6.73;60.06
66398;BME280;54877;51.504;3.894;2023-02-28T03:51:16;103171.66;;;6.71;59.80
66398;BME280;54877;51.504;3.894;2023-02-28T03:53:53;103162.03;;;6.73;59.52
66398;BME280;54877;51.504;3.894;2023-02-28T03:56:23;103174.31;;;6.77;59.44
66398;BME280;54877;51.504;3.894;2023-02-28T04:01:43;103176.09;;;6.81;59.38
66398;BME280;54877;51.504;3.894;2023-02-28T04:04:11;103175.19;;;6.82;58.68
66398;BME280;54877;51.504;3.894;2023-02-28T04:06:38;103180.47;;;6.76;58.40
66398;BME280;54877;51.504;3.894;2023-02-28T04:09:05;103183.09;;;6.75;58.22
66398;BME280;54877;51.504;3.894;2023-02-28T04:11:36;103189.25;;;6.78;58.38
66398;BME280;54877;51.504;3.894;2023-02-28T04:14:07;103189.25;;;6.78;58.03
66398;BME280;54877;51.504;3.894;2023-02-28T04:16:34;103179.59;;;6.77;58.34
66398;BME280;54877;51.504;3.894;2023-02-28T04:19:05;103189.22;;;6.77;57.65
66398;BME280;54877;51.504;3.894;2023-02-28T04:21:36;103177.84;;;6.81;57.64
66398;BME280;54877;51.504;3.894;2023-02-28T04:24:07;103172.56;;;6.76;57.24
66398;BME280;54877;51.504;3.894;2023-02-28T04:26:38;103177.84;;;6.82;57.09
66398;BME280;54877;51.504;3.894;2023-02-28T04:29:05;103174.31;;;6.74;56.92
66398;BME280;54877;51.504;3.894;2023-02-28T04:31:32;103161.16;;;6.80;57.41
66398;BME280;54877;51.504;3.894;2023-02-28T04:33:57;103176.09;;;6.86;57.48
66398;BME280;54877;51.504;3.894;2023-02-28T04:36:23;103180.47;;;6.82;57.60
66398;BME280;54877;51.504;3.894;2023-02-28T04:38:49;103185.75;;;6.79;57.77
66398;BME280;54877;51.504;3.894;2023-02-28T04:41:15;103176.97;;;6.80;57.85
66398;BME280;54877;51.504;3.894;2023-02-28T04:43:40;103178.75;;;6.84;57.67
66398;BME280;54877;51.504;3.894;2023-02-28T04:46:06;103178.69;;;6.72;57.38
66398;BME280;54877;51.504;3.894;2023-02-28T04:48:32;103173.44;;;6.80;57.06
66398;BME280;54877;51.504;3.894;2023-02-28T04:51:03;103181.38;;;6.81;57.01
66398;BME280;54877;51.504;3.894;2023-02-28T04:53:29;103180.47;;;6.76;57.06
66398;BME280;54877;51.504;3.894;2023-02-28T04:55:55;103183.97;;;6.78;56.85
66398;BME280;54877;51.504;3.894;2023-02-28T04:58:21;103185.72;;;6.70;56.34
66398;BME280;54877;51.504;3.894;2023-02-28T05:00:50;103182.19;;;6.71;56.57
66398;BME280;54877;51.504;3.894;2023-02-28T05:03:19;103177.81;;;6.70;56.49
66398;BME280;54877;51.504;3.894;2023-02-28T05:05:45;103191.00;;;6.73;56.49
66398;BME280;54877;51.504;3.894;2023-02-28T05:08:11;103181.31;;;6.69;56.09
66398;BME280;54877;51.504;3.894;2023-02-28T05:10:36;103187.47;;;6.77;56.41
66398;BME280;54877;51.504;3.894;2023-02-28T05:13:02;103185.72;;;6.78;56.09
66398;BME280;54877;51.504;3.894;2023-02-28T05:15:27;103180.44;;;6.70;55.95
66398;BME280;54877;51.504;3.894;2023-02-28T05:17:53;103181.31;;;6.69;55.61
66398;BME280;54877;51.504;3.894;2023-02-28T05:20:18;103192.69;;;6.59;55.75
66398;BME280;54877;51.504;3.894;2023-02-28T05:22:44;103190.97;;;6.70;55.75
66398;BME280;54877;51.504;3.894;2023-02-28T05:25:15;103197.97;;;6.71;55.61
66398;BME280;54877;51.504;3.894;2023-02-28T05:27:42;103194.47;;;6.72;55.71
66398;BME280;54877;51.504;3.894;2023-02-28T05:30:08;103198.91;;;6.76;55.84
66398;BME280;54877;51.504;3.894;2023-02-28T05:32:36;103197.13;;;6.71;56.05
66398;BME280;54877;51.504;3.894;2023-02-28T05:35:02;103199.75;;;6.75;56.03
66398;BME280;54877;51.504;3.894;2023-02-28T05:37:28;103200.66;;;6.79;55.88
66398;BME280;54877;51.504;3.894;2023-02-28T05:39:53;103199.75;;;6.75;55.60
66398;BME280;54877;51.504;3.894;2023-02-28T05:42:18;103201.53;;;6.76;55.60
66398;BME280;54877;51.504;3.894;2023-02-28T05:44:44;103194.47;;;6.69;55.54
66398;BME280;54877;51.504;3.894;2023-02-28T05:47:09;103198.88;;;6.73;55.61
66398;BME280;54877;51.504;3.894;2023-02-28T05:49:35;103203.28;;;6.80;55.50
66398;BME280;54877;51.504;3.894;2023-02-28T05:52:00;103205.91;;;6.80;55.54
66398;BME280;54877;51.504;3.894;2023-02-28T05:54:25;103199.81;;;6.84;55.31
66398;BME280;54877;51.504;3.894;2023-02-28T05:56:51;103199.81;;;6.87;55.53
66398;BME280;54877;51.504;3.894;2023-02-28T05:59:16;103198.88;;;6.75;55.38
66398;BME280;54877;51.504;3.894;2023-02-28T06:01:42;103207.69;;;6.78;55.20
66398;BME280;54877;51.504;3.894;2023-02-28T06:04:13;103205.03;;;6.75;55.24
66398;BME280;54877;51.504;3.894;2023-02-28T06:06:42;103211.19;;;6.76;55.46
66398;BME280;54877;51.504;3.894;2023-02-28T06:09:08;103208.47;;;6.61;55.82
66398;BME280;54877;51.504;3.894;2023-02-28T06:11:34;103213.78;;;6.68;56.04
66398;BME280;54877;51.504;3.894;2023-02-28T06:14:00;103214.63;;;6.69;56.25
66398;BME280;54877;51.504;3.894;2023-02-28T06:16:26;103212.88;;;6.65;56.51
66398;BME280;54877;51.504;3.894;2023-02-28T06:18:52;103219.91;;;6.63;56.50
66398;BME280;54877;51.504;3.894;2023-02-28T06:21:20;103219.03;;;6.62;57.05
66398;BME280;54877;51.504;3.894;2023-02-28T06:23:45;103223.31;;;6.40;57.60
66398;BME280;54877;51.504;3.894;2023-02-28T06:26:11;103217.16;;;6.40;57.43
66398;BME280;54877;51.504;3.894;2023-02-28T06:28:36;103220.59;;;6.30;58.10
66398;BME280;54877;51.504;3.894;2023-02-28T06:31:08;103219.72;;;6.26;58.18
66398;BME280;54877;51.504;3.894;2023-02-28T06:33:36;103225.84;;;6.30;57.46
66398;BME280;54877;51.504;3.894;2023-02-28T06:36:03;103212.63;;;6.19;57.41
66398;BME280;54877;51.504;3.894;2023-02-28T06:38:29;103220.44;;;6.06;57.86
66398;BME280;54877;51.504;3.894;2023-02-28T06:40:55;103226.59;;;6.08;58.35
66398;BME280;54877;51.504;3.894;2023-02-28T06:43:22;103228.38;;;6.10;57.83
66398;BME280;54877;51.504;3.894;2023-02-28T06:45:49;103231.78;;;6.00;57.81
66398;BME280;54877;51.504;3.894;2023-02-28T06:48:14;103231.72;;;5.88;57.71
66398;BME280;54877;51.504;3.894;2023-02-28T06:50:39;103233.53;;;5.95;58.23
66398;BME280;54877;51.504;3.894;2023-02-28T06:53:05;103232.69;;;6.01;57.88
66398;BME280;54877;51.504;3.894;2023-02-28T06:55:30;103229.16;;;5.99;57.66
66398;BME280;54877;51.504;3.894;2023-02-28T06:57:56;103226.59;;;6.05;58.06
66398;BME280;54877;51.504;3.894;2023-02-28T07:00:22;103229.22;;;6.08;58.21
66398;BME280;54877;51.504;3.894;2023-02-28T07:02:48;103217.84;;;6.13;58.42
66398;BME280;54877;51.504;3.894;2023-02-28T07:05:13;103237.09;;;6.08;58.70
66398;BME280;54877;51.504;3.894;2023-02-28T07:07:39;103239.59;;;5.89;59.65
66398;BME280;54877;51.504;3.894;2023-02-28T07:10:08;103236.09;;;5.89;59.64
66398;BME280;54877;51.504;3.894;2023-02-28T07:12:36;103239.53;;;5.83;60.13
66398;BME280;54877;51.504;3.894;2023-02-28T07:15:02;103236.88;;;5.79;59.82
66398;BME280;54877;51.504;3.894;2023-02-28T07:17:28;103239.38;;;5.65;60.56
66398;BME280;54877;51.504;3.894;2023-02-28T07:19:54;103238.50;;;5.65;60.31
66398;BME280;54877;51.504;3.894;2023-02-28T07:22:19;103233.22;;;5.60;60.71
66398;BME280;54877;51.504;3.894;2023-02-28T07:24:44;103234.06;;;5.59;60.94
66398;BME280;54877;51.504;3.894;2023-02-28T07:27:10;103236.72;;;5.64;61.18
66398;BME280;54877;51.504;3.894;2023-02-28T07:29:35;103237.66;;;5.70;60.78
66398;BME280;54877;51.504;3.894;2023-02-28T07:32:01;103244.66;;;5.68;61.39
66398;BME280;54877;51.504;3.894;2023-02-28T07:34:26;103236.78;;;5.70;61.22
66398;BME280;54877;51.504;3.894;2023-02-28T07:36:52;103246.38;;;5.63;61.24
66398;BME280;54877;51.504;3.894;2023-02-28T07:39:19;103244.53;;;5.56;61.79
66398;BME280;54877;51.504;3.894;2023-02-28T07:41:45;103240.97;;;5.50;62.42
66398;BME280;54877;51.504;3.894;2023-02-28T07:44:11;103247.16;;;5.52;62.38
66398;BME280;54877;51.504;3.894;2023-02-28T07:46:36;103244.44;;;5.47;62.85
66398;BME280;54877;51.504;3.894;2023-02-28T07:49:01;103243.63;;;5.53;62.84
66398;BME280;54877;51.504;3.894;2023-02-28T07:51:28;103248.94;;;5.59;62.45
66398;BME280;54877;51.504;3.894;2023-02-28T07:53:56;103249.72;;;5.50;63.23
66398;BME280;54877;51.504;3.894;2023-02-28T07:56:22;103251.50;;;5.51;63.21
66398;BME280;54877;51.504;3.894;2023-02-28T07:58:48;103248.00;;;5.49;63.72
66398;BME280;54877;51.504;3.894;2023-02-28T08:01:13;103256.75;;;5.51;63.40
66398;BME280;54877;51.504;3.894;2023-02-28T08:03:39;103249.63;;;5.38;63.97
66398;BME280;54877;51.504;3.894;2023-02-28T08:06:06;103254.03;;;5.41;64.01
66398;BME280;54877;51.504;3.894;2023-02-28T08:08:33;103253.16;;;5.40;63.88
66398;BME280;54877;51.504;3.894;2023-02-28T08:10:59;103251.34;;;5.36;64.02
66398;BME280;54877;51.504;3.894;2023-02-28T08:13:26;103246.09;;;5.34;64.18
66398;BME280;54877;51.504;3.894;2023-02-28T08:15:53;103250.47;;;5.34;64.05
66398;BME280;54877;51.504;3.894;2023-02-28T08:18:19;103240.81;;;5.33;64.54
66398;BME280;54877;51.504;3.894;2023-02-28T08:20:46;103232.94;;;5.33;64.60
66398;BME280;54877;51.504;3.894;2023-02-28T08:23:11;103240.69;;;5.21;65.28
66398;BME280;54877;51.504;3.894;2023-02-28T08:25:36;103235.59;;;5.36;64.17
66398;BME280;54877;51.504;3.894;2023-02-28T08:28:02;103227.75;;;5.39;64.50
66398;BME280;54877;51.504;3.894;2023-02-28T08:30:27;103242.75;;;5.49;64.47
66398;BME280;54877;51.504;3.894;2023-02-28T08:32:53;103240.13;;;5.51;64.16
66398;BME280;54877;51.504;3.894;2023-02-28T08:35:19;103244.47;;;5.50;63.94
66398;BME280;54877;51.504;3.894;2023-02-28T08:37:44;103231.41;;;5.56;63.68
66398;BME280;54877;51.504;3.894;2023-02-28T08:40:12;103244.47;;;5.50;63.39
66398;BME280;54877;51.504;3.894;2023-02-28T08:42:42;103237.47;;;5.46;63.06
66398;BME280;54877;51.504;3.894;2023-02-28T08:45:11;103237.47;;;5.46;63.85
66398;BME280;54877;51.504;3.894;2023-02-28T08:47:38;103238.38;;;5.51;63.45
66398;BME280;54877;51.504;3.894;2023-02-28T08:50:03;103239.34;;;5.62;63.27
66398;BME280;54877;51.504;3.894;2023-02-28T08:52:29;103237.59;;;5.64;63.01
66398;BME280;54877;51.504;3.894;2023-02-28T08:54:55;103245.56;;;5.72;63.14
66398;BME280;54877;51.504;3.894;2023-02-28T08:57:20;103249.00;;;5.66;62.83
66398;BME280;54877;51.504;3.894;2023-02-28T08:59:45;103245.56;;;5.70;62.55
66398;BME280;54877;51.504;3.894;2023-02-28T09:02:12;103237.72;;;5.76;62.69
66398;BME280;54877;51.504;3.894;2023-02-28T09:04:39;103249.09;;;5.75;62.65
66398;BME280;54877;51.504;3.894;2023-02-28T09:07:04;103243.91;;;5.81;62.03
66398;BME280;54877;51.504;3.894;2023-02-28T09:09:29;103250.13;;;5.88;62.02
66398;BME280;54877;51.504;3.894;2023-02-28T09:11:55;103247.47;;;5.86;61.62
66398;BME280;54877;51.504;3.894;2023-02-28T09:14:21;103257.16;;;5.90;60.77
66398;BME280;54877;51.504;3.894;2023-02-28T09:16:46;103247.53;;;5.93;60.71
66398;BME280;54877;51.504;3.894;2023-02-28T09:19:12;103241.41;;;5.97;60.25
66398;BME280;54877;51.504;3.894;2023-02-28T09:21:37;103241.44;;;6.00;60.20
66398;BME280;54877;51.504;3.894;2023-02-28T09:24:03;103243.28;;;6.10;60.12
66398;BME280;54877;51.504;3.894;2023-02-28T09:26:28;103237.09;;;6.06;59.59
66398;BME280;54877;51.504;3.894;2023-02-28T09:28:54;103236.22;;;6.06;59.68
66398;BME280;54877;51.504;3.894;2023-02-28T09:31:21;103219.59;;;6.11;59.53
66398;BME280;54877;51.504;3.894;2023-02-28T09:33:49;103228.41;;;6.15;58.42
66398;BME280;54877;51.504;3.894;2023-02-28T09:36:17;103231.97;;;6.23;59.59
66398;BME280;54877;51.504;3.894;2023-02-28T09:38:43;103224.97;;;6.32;58.68
66398;BME280;54877;51.504;3.894;2023-02-28T09:41:27;103234.59;;;6.24;58.13
66398;BME280;54877;51.504;3.894;2023-02-28T09:44:04;103241.66;;;6.27;58.46
66398;BME280;54877;51.504;3.894;2023-02-28T09:46:40;103236.38;;;6.33;58.42
66398;BME280;54877;51.504;3.894;2023-02-28T09:49:14;103239.91;;;6.32;58.04
66398;BME280;54877;51.504;3.894;2023-02-28T09:54:14;103243.31;;;6.16;57.02
66398;BME280;54877;51.504;3.894;2023-02-28T09:56:44;103236.28;;;6.15;56.81
66398;BME280;54877;51.504;3.894;2023-02-28T10:04:59;103226.63;;;6.14;58.25
66398;BME280;54877;51.504;3.894;2023-02-28T10:07:37;103225.78;;;6.19;58.53
66398;BME280;54877;51.504;3.894;2023-02-28T10:15:47;103231.97;;;6.27;58.94
66398;BME280;54877;51.504;3.894;2023-02-28T10:18:19;103231.97;;;6.23;58.16
66398;BME280;54877;51.504;3.894;2023-02-28T10:20:49;103233.72;;;6.24;58.30
66398;BME280;54877;51.504;3.894;2023-02-28T10:23:21;103228.47;;;6.30;58.17
66398;BME280;54877;51.504;3.894;2023-02-28T10:25:58;103239.06;;;6.39;59.01
66398;BME280;54877;51.504;3.894;2023-02-28T10:28:26;103226.81;;;6.47;58.11
66398;BME280;54877;51.504;3.894;2023-02-28T10:30:54;103220.75;;;6.60;57.57
66398;BME280;54877;51.504;3.894;2023-02-28T10:33:24;103219.94;;;6.73;57.24
66398;BME280;54877;51.504;3.894;2023-02-28T10:35:53;103212.94;;;6.83;54.83
66398;BME280;54877;51.504;3.894;2023-02-28T10:38:23;103219.13;;;6.86;52.76
66398;BME280;54877;51.504;3.894;2023-02-28T10:40:51;103214.72;;;6.91;52.02
66398;BME280;54877;51.504;3.894;2023-02-28T10:51:04;103204.16;;;6.78;48.29
66398;BME280;54877;51.504;3.894;2023-02-28T10:53:48;103199.75;;;6.72;47.61
66398;BME280;54877;51.504;3.894;2023-02-28T10:56:19;103205.03;;;6.78;48.22
66398;BME280;54877;51.504;3.894;2023-02-28T11:03:54;103198.03;;;6.88;46.09
66398;BME280;54877;51.504;3.894;2023-02-28T11:06:25;103195.44;;;6.85;45.35
66398;BME280;54877;51.504;3.894;2023-02-28T11:08:58;103181.41;;;6.98;46.23
66398;BME280;54877;51.504;3.894;2023-02-28T11:11:26;103192.81;;;7.04;45.31
66398;BME280;54877;51.504;3.894;2023-02-28T11:13:55;103198.09;;;7.10;45.88
66398;BME280;54877;51.504;3.894;2023-02-28T11:16:31;103176.19;;;7.22;45.46
66398;BME280;54877;51.504;3.894;2023-02-28T11:18:59;103177.06;;;7.23;44.55
66398;BME280;54877;51.504;3.894;2023-02-28T11:21:29;103181.44;;;7.27;44.38
66398;BME280;54877;51.504;3.894;2023-02-28T11:29:27;103179.72;;;7.45;43.26
66398;BME280;54877;51.504;3.894;2023-02-28T11:34:38;103173.56;;;7.75;42.23
66398;BME280;54877;51.504;3.894;2023-02-28T11:37:05;103171.75;;;7.94;42.29
66398;BME280;54877;51.504;3.894;2023-02-28T11:39:35;103171.75;;;8.09;43.15
66398;BME280;54877;51.504;3.894;2023-02-28T11:42:11;103168.16;;;8.26;43.20
66398;BME280;54877;51.504;3.894;2023-02-28T11:53:14;103161.91;;;8.56;42.05
66398;BME280;54877;51.504;3.894;2023-02-28T11:56:22;103161.09;;;8.44;41.52
66398;BME280;54877;51.504;3.894;2023-02-28T12:02:06;103162.75;;;8.64;41.04
66398;BME280;54877;51.504;3.894;2023-02-28T12:08:03;103147.78;;;8.72;41.20
66398;BME280;54877;51.504;3.894;2023-02-28T12:11:11;103153.81;;;8.94;40.78
66398;BME280;54877;51.504;3.894;2023-02-28T12:19:38;103131.66;;;9.13;40.48
66398;BME280;54877;51.504;3.894;2023-02-28T12:22:30;103132.53;;;9.17;40.65
66398;BME280;54877;51.504;3.894;2023-02-28T12:27:49;103126.47;;;8.98;37.77
66398;BME280;54877;51.504;3.894;2023-02-28T12:30:28;103114.06;;;9.11;38.87
66398;BME280;54877;51.504;3.894;2023-02-28T12:35:34;103110.22;;;9.50;37.78
66398;BME280;54877;51.504;3.894;2023-02-28T12:38:05;103098.06;;;9.27;37.43
66398;BME280;54877;51.504;3.894;2023-02-28T12:40:48;103089.97;;;9.45;37.00
66398;BME280;54877;51.504;3.894;2023-02-28T12:43:19;103090.13;;;9.30;37.08
66398;BME280;54877;51.504;3.894;2023-02-28T12:51:16;103094.53;;;9.30;37.49
66398;BME280;54877;51.504;3.894;2023-02-28T12:53:52;103083.94;;;9.33;37.11
66398;BME280;54877;51.504;3.894;2023-02-28T12:56:22;103077.78;;;9.29;37.46
66398;BME280;54877;51.504;3.894;2023-02-28T13:04:41;103072.50;;;9.29;36.45
66398;BME280;54877;51.504;3.894;2023-02-28T13:07:21;103073.31;;;9.34;37.61
66398;BME280;54877;51.504;3.894;2023-02-28T13:10:04;103075.13;;;9.29;36.64
66398;BME280;54877;51.504;3.894;2023-02-28T13:12:32;103068.16;;;9.21;36.38
66398;BME280;54877;51.504;3.894;2023-02-28T13:15:08;103064.47;;;9.41;37.30
66398;BME280;54877;51.504;3.894;2023-02-28T13:17:48;103061.84;;;9.38;35.75
66398;BME280;54877;51.504;3.894;2023-02-28T13:20:26;103055.91;;;9.14;35.72
66398;BME280;54877;51.504;3.894;2023-02-28T13:22:54;103066.50;;;9.09;34.96
66398;BME280;54877;51.504;3.894;2023-02-28T13:27:46;103067.66;;;8.73;34.29
66398;BME280;54877;51.504;3.894;2023-02-28T13:33:21;103060.63;;;8.68;34.07
66398;BME280;54877;51.504;3.894;2023-02-28T13:38:38;103054.47;;;8.69;35.42
66398;BME280;54877;51.504;3.894;2023-02-28T13:44:11;103050.88;;;8.80;35.94
66398;BME280;54877;51.504;3.894;2023-02-28T13:49:25;103057.03;;;8.82;35.82
66398;BME280;54877;51.504;3.894;2023-02-28T13:52:02;103039.38;;;8.89;36.60
66398;BME280;54877;51.504;3.894;2023-02-28T14:05:42;103058.84;;;8.70;36.00
66398;BME280;54877;51.504;3.894;2023-02-28T14:10:46;103050.06;;;8.68;35.74
66398;BME280;54877;51.504;3.894;2023-02-28T14:16:03;103055.47;;;8.53;35.52
66398;BME280;54877;51.504;3.894;2023-02-28T14:18:32;103053.56;;;8.70;34.97
66398;BME280;54877;51.504;3.894;2023-02-28T14:29:21;103043.09;;;8.61;35.61
66398;BME280;54877;51.504;3.894;2023-02-28T14:32:01;103057.28;;;8.45;35.58
66398;BME280;54877;51.504;3.894;2023-02-28T14:34:39;103048.53;;;8.37;35.53
66398;BME280;54877;51.504;3.894;2023-02-28T14:37:19;103055.53;;;8.41;35.65
66398;BME280;54877;51.504;3.894;2023-02-28T14:39:48;103047.56;;;8.45;36.21
66398;BME280;54877;51.504;3.894;2023-02-28T14:44:58;103054.69;;;8.36;35.55
66398;BME280;54877;51.504;3.894;2023-02-28T14:47:24;103052.91;;;8.42;35.59
66398;BME280;54877;51.504;3.894;2023-02-28T14:49:53;103052.91;;;8.39;35.56
66398;BME280;54877;51.504;3.894;2023-02-28T14:52:23;103044.91;;;8.56;35.96
66398;BME280;54877;51.504;3.894;2023-02-28T14:55:35;103048.41;;;8.58;35.97
66398;BME280;54877;51.504;3.894;2023-02-28T14:57:53;103036.06;;;8.60;35.65
66398;BME280;54877;51.504;3.894;2023-02-28T15:00:25;103036.00;;;8.64;36.34
66398;BME280;54877;51.504;3.894;2023-02-28T15:02:55;103041.34;;;8.61;36.25
66398;BME280;54877;51.504;3.894;2023-02-28T15:05:31;103043.13;;;8.55;35.89
66398;BME280;54877;51.504;3.894;2023-02-28T15:08:02;103030.13;;;8.17;35.61
66398;BME280;54877;51.504;3.894;2023-02-28T15:10:39;103033.63;;;8.28;35.69
66398;BME280;54877;51.504;3.894;2023-02-28T15:13:15;103036.22;;;8.26;36.23
66398;BME280;54877;51.504;3.894;2023-02-28T15:15:43;103040.63;;;8.24;36.21
66398;BME280;54877;51.504;3.894;2023-02-28T15:20:57;103038.06;;;8.11;35.29
66398;BME280;54877;51.504;3.894;2023-02-28T15:23:27;103031.03;;;8.11;35.81
66398;BME280;54877;51.504;3.894;2023-02-28T15:25:53;103035.44;;;8.11;35.69
66398;BME280;54877;51.504;3.894;2023-02-28T15:28:20;103030.13;;;8.14;35.80
66398;BME280;54877;51.504;3.894;2023-02-28T15:30:58;103034.53;;;8.10;36.61
66398;BME280;54877;51.504;3.894;2023-02-28T15:33:29;103037.22;;;7.98;35.85
66398;BME280;54877;51.504;3.894;2023-02-28T15:36:03;103026.69;;;7.97;35.79